Portada
METAR-TAF:

METAR-TAF

Aeropuertos :

Iowa City Municipal Airport

Iowa City, Iowa, Estados Unidos

latitud: 41-37-58N, longitud: 091-32-35W, altitud: 203 m

Observación

El informe se hizo hace 29 minutos, a las 14:52 UTC
Viento 5 kt del este-sureste
Temperatura 23°C
Humedad 89%
Presión 1026 hPa
Visibilidad: 16.1 km
Nubes dispersas a una altura de 6500 ft
Cielo nuboso a una altura de 9500 ft
Cielo nuboso a una altura de 12000 ft

METAR: KIOW 201452Z AUTO 12005KT 10SM SCT065 BKN095 BKN120 23/21 A3030 RMK AO2 SLP258 60005 T02280206 51006

Hora: 10:21 (15:21 UTC)


TAF: falta

Observaciones y pronósticos meteorológicos de más de 4000 aeropuertos (mensajes METAR y TAF).

Los puntos amarillos y rojos representan las estaciones disponibles.

Ponga el ratón en el punto deseado para ver el nombre de la estación.

Haga clic para ver las observaciones y los pronósticos meteorológicos.

Para cambiar el mapa : haga clic en los botones verdes con una cruz de color negro para hacer un zoom, en el botón verde con un guión para alejar o en las flechas verdes para mapas adyacentes.


METAR-TAF: